sensor_id;sensor_type;location;lat;lon;timestamp;pressure;altitude;pressure_sealevel;temperature;humidity
58088;BME280;43884;49.152;8.302;2024-03-02T00:02:13;99195.13;;;7.02;74.68
58088;BME280;43884;49.152;8.302;2024-03-02T00:04:40;99192.00;;;7.05;73.47
58088;BME280;43884;49.152;8.302;2024-03-02T00:07:06;99174.75;;;6.64;73.67
58088;BME280;43884;49.152;8.302;2024-03-02T00:09:33;99167.00;;;6.96;73.30
58088;BME280;43884;49.152;8.302;2024-03-02T00:12:00;99173.16;;;6.77;75.01
58088;BME280;43884;49.152;8.302;2024-03-02T00:14:29;99172.78;;;6.86;74.11
58088;BME280;43884;49.152;8.302;2024-03-02T00:16:55;99172.03;;;7.06;73.87
58088;BME280;43884;49.152;8.302;2024-03-02T00:19:22;99171.31;;;6.84;74.35
58088;BME280;43884;49.152;8.302;2024-03-02T00:21:48;99165.34;;;6.53;74.96
58088;BME280;43884;49.152;8.302;2024-03-02T00:24:19;99171.34;;;6.91;74.24
58088;BME280;43884;49.152;8.302;2024-03-02T00:26:46;99168.84;;;6.89;74.50
58088;BME280;43884;49.152;8.302;2024-03-02T00:29:16;99170.22;;;7.13;72.99
58088;BME280;43884;49.152;8.302;2024-03-02T00:31:43;99156.91;;;7.19;72.46
58088;BME280;43884;49.152;8.302;2024-03-02T00:34:09;99166.44;;;7.01;71.54
58088;BME280;43884;49.152;8.302;2024-03-02T00:36:39;99167.44;;;7.00;72.20
58088;BME280;43884;49.152;8.302;2024-03-02T00:39:06;99185.50;;;6.93;74.36
58088;BME280;43884;49.152;8.302;2024-03-02T00:41:33;99182.41;;;7.03;72.58
58088;BME280;43884;49.152;8.302;2024-03-02T00:44:03;99194.81;;;6.83;74.50
58088;BME280;43884;49.152;8.302;2024-03-02T00:46:33;99187.94;;;7.30;72.97
58088;BME280;43884;49.152;8.302;2024-03-02T00:49:00;99210.03;;;6.56;75.90
58088;BME280;43884;49.152;8.302;2024-03-02T00:51:27;99202.44;;;7.15;75.72
58088;BME280;43884;49.152;8.302;2024-03-02T00:53:55;99202.47;;;7.22;75.20
58088;BME280;43884;49.152;8.302;2024-03-02T00:56:21;99208.16;;;6.92;75.45
58088;BME280;43884;49.152;8.302;2024-03-02T00:58:48;99202.69;;;6.78;76.65
58088;BME280;43884;49.152;8.302;2024-03-02T01:01:15;99197.56;;;6.97;76.46
58088;BME280;43884;49.152;8.302;2024-03-02T01:03:42;99192.09;;;7.25;73.85
58088;BME280;43884;49.152;8.302;2024-03-02T01:06:08;99192.22;;;7.10;73.75
58088;BME280;43884;49.152;8.302;2024-03-02T01:08:35;99183.19;;;6.90;73.88
58088;BME280;43884;49.152;8.302;2024-03-02T01:11:01;99178.31;;;7.13;73.23
58088;BME280;43884;49.152;8.302;2024-03-02T01:13:28;99187.38;;;6.92;73.43
58088;BME280;43884;49.152;8.302;2024-03-02T01:15:55;99173.22;;;6.90;73.05
58088;BME280;43884;49.152;8.302;2024-03-02T01:18:21;99182.28;;;6.76;73.27
58088;BME280;43884;49.152;8.302;2024-03-02T01:20:48;99191.91;;;6.50;74.14
58088;BME280;43884;49.152;8.302;2024-03-02T01:23:14;99182.16;;;6.55;73.73
58088;BME280;43884;49.152;8.302;2024-03-02T01:25:40;99180.09;;;6.57;73.62
58088;BME280;43884;49.152;8.302;2024-03-02T01:28:07;99173.75;;;6.72;73.26
58088;BME280;43884;49.152;8.302;2024-03-02T01:30:33;99169.59;;;6.69;72.25
58088;BME280;43884;49.152;8.302;2024-03-02T01:33:00;99179.03;;;6.87;73.24
58088;BME280;43884;49.152;8.302;2024-03-02T01:35:26;99180.16;;;6.64;73.43
58088;BME280;43884;49.152;8.302;2024-03-02T01:37:52;99186.44;;;6.43;72.80
58088;BME280;43884;49.152;8.302;2024-03-02T01:40:19;99184.09;;;6.33;73.71
58088;BME280;43884;49.152;8.302;2024-03-02T01:42:45;99174.66;;;6.51;73.44
58088;BME280;43884;49.152;8.302;2024-03-02T01:45:12;99166.69;;;6.36;72.54
58088;BME280;43884;49.152;8.302;2024-03-02T01:47:38;99173.13;;;6.41;73.04
58088;BME280;43884;49.152;8.302;2024-03-02T01:50:04;99167.06;;;6.32;72.84
58088;BME280;43884;49.152;8.302;2024-03-02T01:52:31;99177.34;;;6.22;73.76
58088;BME280;43884;49.152;8.302;2024-03-02T01:54:57;99180.66;;;6.17;73.91
58088;BME280;43884;49.152;8.302;2024-03-02T01:57:24;99196.91;;;5.81;76.41
58088;BME280;43884;49.152;8.302;2024-03-02T01:59:50;99192.72;;;5.78;78.16
58088;BME280;43884;49.152;8.302;2024-03-02T02:02:17;99168.63;;;6.20;76.11
58088;BME280;43884;49.152;8.302;2024-03-02T02:04:43;99153.41;;;6.41;75.48
58088;BME280;43884;49.152;8.302;2024-03-02T02:07:10;99167.09;;;6.39;75.02
58088;BME280;43884;49.152;8.302;2024-03-02T02:09:36;99159.25;;;6.16;74.72
58088;BME280;43884;49.152;8.302;2024-03-02T02:12:02;99151.81;;;6.18;73.81
58088;BME280;43884;49.152;8.302;2024-03-02T02:14:29;99151.66;;;6.26;72.88
58088;BME280;43884;49.152;8.302;2024-03-02T02:16:55;99149.34;;;6.23;72.80
58088;BME280;43884;49.152;8.302;2024-03-02T02:19:21;99152.19;;;6.15;73.07
58088;BME280;43884;49.152;8.302;2024-03-02T02:21:48;99152.19;;;5.93;72.84
58088;BME280;43884;49.152;8.302;2024-03-02T02:24:14;99149.91;;;6.18;72.56
58088;BME280;43884;49.152;8.302;2024-03-02T02:26:41;99142.31;;;6.29;72.13
58088;BME280;43884;49.152;8.302;2024-03-02T02:29:07;99137.28;;;6.19;71.77
58088;BME280;43884;49.152;8.302;2024-03-02T02:31:40;99139.53;;;5.93;72.05
58088;BME280;43884;49.152;8.302;2024-03-02T02:34:06;99151.53;;;5.91;72.65
58088;BME280;43884;49.152;8.302;2024-03-02T02:36:33;99141.81;;;5.68;73.15
58088;BME280;43884;49.152;8.302;2024-03-02T02:39:01;99134.47;;;5.62;73.50
58088;BME280;43884;49.152;8.302;2024-03-02T02:41:28;99130.50;;;5.58;72.99
58088;BME280;43884;49.152;8.302;2024-03-02T02:43:54;99132.28;;;5.72;73.03
58088;BME280;43884;49.152;8.302;2024-03-02T02:46:21;99127.00;;;5.86;72.60
58088;BME280;43884;49.152;8.302;2024-03-02T02:48:47;99119.06;;;5.56;72.85
58088;BME280;43884;49.152;8.302;2024-03-02T02:51:13;99116.38;;;5.56;73.22
58088;BME280;43884;49.152;8.302;2024-03-02T02:53:40;99109.44;;;5.46;72.92
58088;BME280;43884;49.152;8.302;2024-03-02T02:56:06;99112.53;;;5.43;73.17
58088;BME280;43884;49.152;8.302;2024-03-02T02:58:32;99123.31;;;5.21;73.95
58088;BME280;43884;49.152;8.302;2024-03-02T03:00:59;99118.00;;;5.50;73.31
58088;BME280;43884;49.152;8.302;2024-03-02T03:03:25;99117.41;;;5.55;72.79
58088;BME280;43884;49.152;8.302;2024-03-02T03:05:52;99109.69;;;5.30;72.89
58088;BME280;43884;49.152;8.302;2024-03-02T03:08:18;99112.66;;;5.35;73.46
58088;BME280;43884;49.152;8.302;2024-03-02T03:10:45;99101.28;;;5.39;72.71
58088;BME280;43884;49.152;8.302;2024-03-02T03:13:11;99104.00;;;5.39;73.00
58088;BME280;43884;49.152;8.302;2024-03-02T03:15:37;99092.09;;;5.56;72.25
58088;BME280;43884;49.152;8.302;2024-03-02T03:18:04;99094.94;;;5.47;71.40
58088;BME280;43884;49.152;8.302;2024-03-02T03:20:30;99102.97;;;5.41;72.15
58088;BME280;43884;49.152;8.302;2024-03-02T03:22:57;99105.19;;;5.37;72.29
58088;BME280;43884;49.152;8.302;2024-03-02T03:25:23;99105.88;;;5.39;72.58
58088;BME280;43884;49.152;8.302;2024-03-02T03:27:50;99106.56;;;5.48;72.46
58088;BME280;43884;49.152;8.302;2024-03-02T03:30:16;99104.00;;;5.61;71.89
58088;BME280;43884;49.152;8.302;2024-03-02T03:32:42;99104.38;;;5.58;71.54
58088;BME280;43884;49.152;8.302;2024-03-02T03:35:09;99100.06;;;5.64;71.45
58088;BME280;43884;49.152;8.302;2024-03-02T03:37:35;99100.44;;;5.61;71.23
58088;BME280;43884;49.152;8.302;2024-03-02T03:40:02;99105.81;;;5.54;72.90
58088;BME280;43884;49.152;8.302;2024-03-02T03:42:29;99121.06;;;5.25;74.41
58088;BME280;43884;49.152;8.302;2024-03-02T03:44:55;99107.94;;;5.87;73.18
58088;BME280;43884;49.152;8.302;2024-03-02T03:47:21;99109.50;;;5.75;72.12
58088;BME280;43884;49.152;8.302;2024-03-02T03:49:48;99097.84;;;5.96;72.07
58088;BME280;43884;49.152;8.302;2024-03-02T03:52:14;99103.31;;;5.81;73.32
58088;BME280;43884;49.152;8.302;2024-03-02T03:54:40;99107.38;;;5.70;72.42
58088;BME280;43884;49.152;8.302;2024-03-02T03:57:07;99111.94;;;4.89;73.61
58088;BME280;43884;49.152;8.302;2024-03-02T03:59:33;99125.72;;;5.16;73.63
58088;BME280;43884;49.152;8.302;2024-03-02T04:01:59;99113.91;;;5.17;73.16
58088;BME280;43884;49.152;8.302;2024-03-02T04:04:26;99111.22;;;5.17;73.29
58088;BME280;43884;49.152;8.302;2024-03-02T04:06:52;99118.97;;;5.05;73.16
58088;BME280;43884;49.152;8.302;2024-03-02T04:09:18;99119.84;;;4.91;73.41
58088;BME280;43884;49.152;8.302;2024-03-02T04:11:45;99128.19;;;4.96;74.02
58088;BME280;43884;49.152;8.302;2024-03-02T04:14:11;99120.66;;;5.06;73.30
58088;BME280;43884;49.152;8.302;2024-03-02T04:16:38;99125.84;;;5.08;72.51
58088;BME280;43884;49.152;8.302;2024-03-02T04:19:04;99120.72;;;5.13;72.99
58088;BME280;43884;49.152;8.302;2024-03-02T04:21:31;99127.28;;;4.89;72.67
58088;BME280;43884;49.152;8.302;2024-03-02T04:23:57;99129.06;;;5.18;72.48
58088;BME280;43884;49.152;8.302;2024-03-02T04:26:24;99120.44;;;5.23;71.44
58088;BME280;43884;49.152;8.302;2024-03-02T04:28:51;99126.44;;;4.88;72.16
58088;BME280;43884;49.152;8.302;2024-03-02T04:31:17;99144.00;;;4.84;73.74
58088;BME280;43884;49.152;8.302;2024-03-02T04:33:44;99136.00;;;5.28;73.99
58088;BME280;43884;49.152;8.302;2024-03-02T04:36:10;99136.34;;;5.03;72.44
58088;BME280;43884;49.152;8.302;2024-03-02T04:38:39;99134.56;;;5.10;71.81
58088;BME280;43884;49.152;8.302;2024-03-02T04:41:06;99141.91;;;5.16;71.99
58088;BME280;43884;49.152;8.302;2024-03-02T04:43:33;99149.13;;;4.79;73.58
58088;BME280;43884;49.152;8.302;2024-03-02T04:45:59;99139.38;;;5.15;72.60
58088;BME280;43884;49.152;8.302;2024-03-02T04:48:26;99136.06;;;5.34;71.86
58088;BME280;43884;49.152;8.302;2024-03-02T04:50:52;99137.75;;;5.35;72.98
58088;BME280;43884;49.152;8.302;2024-03-02T04:53:19;99139.59;;;5.35;71.39
58088;BME280;43884;49.152;8.302;2024-03-02T04:55:45;99138.63;;;5.21;71.68
58088;BME280;43884;49.152;8.302;2024-03-02T04:58:12;99140.75;;;5.25;72.03
58088;BME280;43884;49.152;8.302;2024-03-02T05:00:38;99137.88;;;4.90;72.48
58088;BME280;43884;49.152;8.302;2024-03-02T05:03:04;99136.50;;;5.16;72.01
58088;BME280;43884;49.152;8.302;2024-03-02T05:05:31;99136.28;;;5.33;71.68
58088;BME280;43884;49.152;8.302;2024-03-02T05:07:57;99136.78;;;5.21;71.77
58088;BME280;43884;49.152;8.302;2024-03-02T05:10:23;99150.88;;;4.87;72.82
58088;BME280;43884;49.152;8.302;2024-03-02T05:12:50;99150.63;;;4.66;73.91
58088;BME280;43884;49.152;8.302;2024-03-02T05:15:16;99148.38;;;4.70;73.22
58088;BME280;43884;49.152;8.302;2024-03-02T05:17:43;99154.06;;;4.60;74.49
58088;BME280;43884;49.152;8.302;2024-03-02T05:20:09;99140.19;;;4.63;73.35
58088;BME280;43884;49.152;8.302;2024-03-02T05:22:36;99143.81;;;4.70;73.17
58088;BME280;43884;49.152;8.302;2024-03-02T05:25:03;99153.38;;;4.58;73.20
58088;BME280;43884;49.152;8.302;2024-03-02T05:27:30;99146.25;;;4.65;73.23
58088;BME280;43884;49.152;8.302;2024-03-02T05:29:57;99149.03;;;4.42;73.23
58088;BME280;43884;49.152;8.302;2024-03-02T05:32:23;99154.06;;;4.60;74.28
58088;BME280;43884;49.152;8.302;2024-03-02T05:34:49;99152.63;;;4.79;73.13
58088;BME280;43884;49.152;8.302;2024-03-02T05:37:16;99159.63;;;4.74;72.26
58088;BME280;43884;49.152;8.302;2024-03-02T05:39:42;99166.31;;;4.48;74.59
58088;BME280;43884;49.152;8.302;2024-03-02T05:42:09;99150.84;;;5.38;72.91
58088;BME280;43884;49.152;8.302;2024-03-02T05:44:36;99150.06;;;5.23;72.24
58088;BME280;43884;49.152;8.302;2024-03-02T05:47:02;99150.56;;;5.11;71.85
58088;BME280;43884;49.152;8.302;2024-03-02T05:49:29;99168.72;;;4.73;72.27
58088;BME280;43884;49.152;8.302;2024-03-02T05:51:55;99150.38;;;4.98;71.85
58088;BME280;43884;49.152;8.302;2024-03-02T05:54:22;99154.78;;;4.84;72.97
58088;BME280;43884;49.152;8.302;2024-03-02T05:56:48;99154.03;;;4.90;73.10
58088;BME280;43884;49.152;8.302;2024-03-02T05:59:14;99165.63;;;4.76;74.00
58088;BME280;43884;49.152;8.302;2024-03-02T06:01:47;99167.88;;;4.72;74.51
58088;BME280;43884;49.152;8.302;2024-03-02T06:04:14;99165.81;;;4.74;72.89
58088;BME280;43884;49.152;8.302;2024-03-02T06:06:40;99174.84;;;4.36;74.21
58088;BME280;43884;49.152;8.302;2024-03-02T06:09:07;99167.31;;;4.62;74.02
58088;BME280;43884;49.152;8.302;2024-03-02T06:11:34;99172.16;;;4.66;73.71
58088;BME280;43884;49.152;8.302;2024-03-02T06:14:00;99168.16;;;4.62;73.20
58088;BME280;43884;49.152;8.302;2024-03-02T06:16:27;99164.91;;;4.67;72.99
58088;BME280;43884;49.152;8.302;2024-03-02T06:18:53;99163.34;;;4.73;73.38
58088;BME280;43884;49.152;8.302;2024-03-02T06:21:19;99172.69;;;4.77;73.39
58088;BME280;43884;49.152;8.302;2024-03-02T06:23:46;99168.44;;;4.82;73.47
58088;BME280;43884;49.152;8.302;2024-03-02T06:26:12;99176.59;;;4.74;73.39
58088;BME280;43884;49.152;8.302;2024-03-02T06:28:39;99176.69;;;4.66;73.79
58088;BME280;43884;49.152;8.302;2024-03-02T06:31:05;99174.38;;;4.78;73.26
58088;BME280;43884;49.152;8.302;2024-03-02T06:33:31;99166.53;;;4.98;72.52
58088;BME280;43884;49.152;8.302;2024-03-02T06:35:58;99166.47;;;4.76;71.85
58088;BME280;43884;49.152;8.302;2024-03-02T06:38:24;99169.81;;;4.78;72.50
58088;BME280;43884;49.152;8.302;2024-03-02T06:40:51;99187.56;;;4.73;73.67
58088;BME280;43884;49.152;8.302;2024-03-02T06:43:17;99185.22;;;4.69;74.01
58088;BME280;43884;49.152;8.302;2024-03-02T06:45:43;99180.66;;;5.00;73.83
58088;BME280;43884;49.152;8.302;2024-03-02T06:48:10;99175.41;;;5.29;72.69
58088;BME280;43884;49.152;8.302;2024-03-02T06:50:36;99174.50;;;5.21;72.87
58088;BME280;43884;49.152;8.302;2024-03-02T06:53:03;99167.69;;;5.25;72.75
58088;BME280;43884;49.152;8.302;2024-03-02T06:55:29;99175.38;;;4.92;73.65
58088;BME280;43884;49.152;8.302;2024-03-02T06:57:56;99179.03;;;4.69;74.54
58088;BME280;43884;49.152;8.302;2024-03-02T07:00:22;99176.41;;;4.76;75.00
58088;BME280;43884;49.152;8.302;2024-03-02T07:02:48;99175.47;;;4.98;74.39
58088;BME280;43884;49.152;8.302;2024-03-02T07:05:15;99181.50;;;4.85;74.69
58088;BME280;43884;49.152;8.302;2024-03-02T07:07:41;99178.44;;;5.04;74.10
58088;BME280;43884;49.152;8.302;2024-03-02T07:10:07;99184.91;;;5.09;73.77
58088;BME280;43884;49.152;8.302;2024-03-02T07:12:34;99188.09;;;4.98;74.73
58088;BME280;43884;49.152;8.302;2024-03-02T07:15:00;99181.81;;;5.28;74.56
58088;BME280;43884;49.152;8.302;2024-03-02T07:17:27;99174.31;;;5.82;73.25
58088;BME280;43884;49.152;8.302;2024-03-02T07:19:53;99164.16;;;5.84;72.32
58088;BME280;43884;49.152;8.302;2024-03-02T07:22:20;99174.75;;;5.85;72.70
58088;BME280;43884;49.152;8.302;2024-03-02T07:24:47;99179.66;;;6.25;72.18
58088;BME280;43884;49.152;8.302;2024-03-02T07:27:13;99194.09;;;6.39;71.96
58088;BME280;43884;49.152;8.302;2024-03-02T07:29:40;99192.22;;;6.40;72.32
58088;BME280;43884;49.152;8.302;2024-03-02T07:32:06;99194.75;;;6.41;72.09
58088;BME280;43884;49.152;8.302;2024-03-02T07:34:33;99198.13;;;6.85;72.27
58088;BME280;43884;49.152;8.302;2024-03-02T07:36:59;99198.97;;;7.28;71.33
58088;BME280;43884;49.152;8.302;2024-03-02T07:39:26;99198.19;;;7.41;71.31
58088;BME280;43884;49.152;8.302;2024-03-02T07:41:53;99206.06;;;7.36;71.71
58088;BME280;43884;49.152;8.302;2024-03-02T07:44:19;99190.78;;;7.90;70.84
58088;BME280;43884;49.152;8.302;2024-03-02T07:46:46;99195.59;;;8.22;70.29
58088;BME280;43884;49.152;8.302;2024-03-02T07:49:12;99202.88;;;8.01;70.83
58088;BME280;43884;49.152;8.302;2024-03-02T07:51:39;99201.44;;;8.19;71.61
58088;BME280;43884;49.152;8.302;2024-03-02T07:54:05;99210.31;;;7.65;73.64
58088;BME280;43884;49.152;8.302;2024-03-02T07:56:32;99198.72;;;8.26;73.57
58088;BME280;43884;49.152;8.302;2024-03-02T07:58:58;99193.50;;;8.65;72.24
58088;BME280;43884;49.152;8.302;2024-03-02T08:01:25;99197.16;;;9.04;70.93
58088;BME280;43884;49.152;8.302;2024-03-02T08:03:51;99195.00;;;9.20;70.09
58088;BME280;43884;49.152;8.302;2024-03-02T08:06:18;99205.81;;;8.54;72.21
58088;BME280;43884;49.152;8.302;2024-03-02T08:08:44;99202.03;;;8.28;73.00
58088;BME280;43884;49.152;8.302;2024-03-02T08:11:10;99208.91;;;8.03;75.13
58088;BME280;43884;49.152;8.302;2024-03-02T08:13:37;99201.41;;;8.26;73.86
58088;BME280;43884;49.152;8.302;2024-03-02T08:16:04;99206.63;;;8.54;73.50
58088;BME280;43884;49.152;8.302;2024-03-02T08:18:31;99202.44;;;8.85;72.37
58088;BME280;43884;49.152;8.302;2024-03-02T08:20:57;99207.25;;;8.36;73.66
58088;BME280;43884;49.152;8.302;2024-03-02T08:23:23;99207.38;;;9.54;72.06
58088;BME280;43884;49.152;8.302;2024-03-02T08:25:50;99206.75;;;9.52;71.37
58088;BME280;43884;49.152;8.302;2024-03-02T08:28:16;99188.41;;;10.38;70.38
58088;BME280;43884;49.152;8.302;2024-03-02T08:30:43;99185.44;;;10.20;69.50
58088;BME280;43884;49.152;8.302;2024-03-02T08:33:09;99192.84;;;10.06;71.09
58088;BME280;43884;49.152;8.302;2024-03-02T08:35:36;99189.47;;;10.43;70.23
58088;BME280;43884;49.152;8.302;2024-03-02T08:38:03;99210.94;;;9.87;71.50
58088;BME280;43884;49.152;8.302;2024-03-02T08:40:29;99199.22;;;10.19;72.12
58088;BME280;43884;49.152;8.302;2024-03-02T08:42:55;99192.06;;;10.94;70.38
58088;BME280;43884;49.152;8.302;2024-03-02T08:45:22;99187.25;;;10.27;70.18
58088;BME280;43884;49.152;8.302;2024-03-02T08:47:48;99185.13;;;11.17;68.99
58088;BME280;43884;49.152;8.302;2024-03-02T08:50:30;99174.91;;;10.94;68.82
58088;BME280;43884;49.152;8.302;2024-03-02T08:52:56;99182.78;;;10.83;69.15
58088;BME280;43884;49.152;8.302;2024-03-02T08:55:23;99177.38;;;10.32;68.73
58088;BME280;43884;49.152;8.302;2024-03-02T08:57:49;99173.69;;;11.27;68.08
58088;BME280;43884;49.152;8.302;2024-03-02T09:00:15;99170.94;;;11.76;66.38
58088;BME280;43884;49.152;8.302;2024-03-02T09:02:43;99170.09;;;11.76;66.63
58088;BME280;43884;49.152;8.302;2024-03-02T09:05:10;99162.41;;;11.73;66.07
58088;BME280;43884;49.152;8.302;2024-03-02T09:07:36;99158.50;;;12.35;64.76
58088;BME280;43884;49.152;8.302;2024-03-02T09:10:02;99160.53;;;11.42;64.68
58088;BME280;43884;49.152;8.302;2024-03-02T09:12:29;99154.09;;;11.67;66.03
58088;BME280;43884;49.152;8.302;2024-03-02T09:14:55;99151.03;;;12.42;63.79
58088;BME280;43884;49.152;8.302;2024-03-02T09:17:22;99163.06;;;11.98;65.54
58088;BME280;43884;49.152;8.302;2024-03-02T09:19:48;99164.34;;;13.03;64.47
58088;BME280;43884;49.152;8.302;2024-03-02T09:22:14;99153.16;;;12.52;62.98
58088;BME280;43884;49.152;8.302;2024-03-02T09:24:41;99156.22;;;12.80;62.60
58088;BME280;43884;49.152;8.302;2024-03-02T09:27:07;99159.94;;;13.55;62.16
58088;BME280;43884;49.152;8.302;2024-03-02T09:29:33;99146.31;;;13.72;60.06
58088;BME280;43884;49.152;8.302;2024-03-02T09:32:00;99156.19;;;11.65;62.76
58088;BME280;43884;49.152;8.302;2024-03-02T09:34:26;99164.28;;;11.41;63.77
58088;BME280;43884;49.152;8.302;2024-03-02T09:36:53;99166.56;;;11.44;64.25
58088;BME280;43884;49.152;8.302;2024-03-02T09:39:19;99149.72;;;11.66;62.19
58088;BME280;43884;49.152;8.302;2024-03-02T09:41:45;99140.84;;;12.49;61.21
58088;BME280;43884;49.152;8.302;2024-03-02T09:44:13;99125.16;;;12.57;58.64
58088;BME280;43884;49.152;8.302;2024-03-02T09:46:39;99137.19;;;13.38;58.67
58088;BME280;43884;49.152;8.302;2024-03-02T09:49:06;99124.81;;;13.18;56.78
58088;BME280;43884;49.152;8.302;2024-03-02T09:51:32;99143.84;;;13.01;59.74
58088;BME280;43884;49.152;8.302;2024-03-02T09:53:59;99127.38;;;13.66;56.64
58088;BME280;43884;49.152;8.302;2024-03-02T09:56:28;99124.25;;;14.25;57.14
58088;BME280;43884;49.152;8.302;2024-03-02T09:58:54;99129.59;;;13.40;55.78
58088;BME280;43884;49.152;8.302;2024-03-02T10:01:21;99138.38;;;13.13;56.58
58088;BME280;43884;49.152;8.302;2024-03-02T10:03:47;99144.66;;;13.42;58.20
58088;BME280;43884;49.152;8.302;2024-03-02T10:06:20;99120.03;;;14.97;55.86
58088;BME280;43884;49.152;8.302;2024-03-02T10:08:47;99119.38;;;14.50;56.31
58088;BME280;43884;49.152;8.302;2024-03-02T10:11:25;99122.25;;;14.04;55.73
58088;BME280;43884;49.152;8.302;2024-03-02T10:13:51;99131.44;;;13.80;56.94
58088;BME280;43884;49.152;8.302;2024-03-02T10:16:29;99125.97;;;13.63;57.78
58088;BME280;43884;49.152;8.302;2024-03-02T10:18:56;99121.81;;;15.08;56.77
58088;BME280;43884;49.152;8.302;2024-03-02T10:21:22;99121.84;;;13.78;57.42
58088;BME280;43884;49.152;8.302;2024-03-02T10:23:48;99125.81;;;13.87;57.28
58088;BME280;43884;49.152;8.302;2024-03-02T10:26:18;99118.94;;;14.19;57.32
58088;BME280;43884;49.152;8.302;2024-03-02T10:28:47;99115.47;;;14.23;56.08
58088;BME280;43884;49.152;8.302;2024-03-02T10:31:14;99111.81;;;14.18;55.88
58088;BME280;43884;49.152;8.302;2024-03-02T10:33:40;99118.81;;;14.48;56.99
58088;BME280;43884;49.152;8.302;2024-03-02T10:36:07;99117.53;;;14.95;57.12
58088;BME280;43884;49.152;8.302;2024-03-02T10:38:34;99094.75;;;15.12;53.98
58088;BME280;43884;49.152;8.302;2024-03-02T10:41:00;99083.88;;;15.77;52.49
58088;BME280;43884;49.152;8.302;2024-03-02T10:43:27;99087.22;;;15.52;53.11
58088;BME280;43884;49.152;8.302;2024-03-02T10:45:54;99091.25;;;15.71;55.20
58088;BME280;43884;49.152;8.302;2024-03-02T10:48:21;99072.38;;;16.08;52.53
58088;BME280;43884;49.152;8.302;2024-03-02T10:50:49;99068.53;;;16.09;52.08
58088;BME280;43884;49.152;8.302;2024-03-02T10:53:16;99072.53;;;15.08;53.87
58088;BME280;43884;49.152;8.302;2024-03-02T10:55:42;99065.97;;;15.97;52.72
58088;BME280;43884;49.152;8.302;2024-03-02T10:58:08;99070.28;;;15.55;53.68
58088;BME280;43884;49.152;8.302;2024-03-02T11:00:38;99056.00;;;14.98;53.33
58088;BME280;43884;49.152;8.302;2024-03-02T11:03:05;99062.97;;;15.66;52.66
58088;BME280;43884;49.152;8.302;2024-03-02T11:05:33;99051.97;;;17.00;51.84
58088;BME280;43884;49.152;8.302;2024-03-02T11:08:12;99040.50;;;17.14;49.57
58088;BME280;43884;49.152;8.302;2024-03-02T11:10:48;99045.50;;;16.63;50.03
58088;BME280;43884;49.152;8.302;2024-03-02T11:13:16;99048.84;;;16.76;51.59
58088;BME280;43884;49.152;8.302;2024-03-02T11:15:46;99037.25;;;17.53;49.16
58088;BME280;43884;49.152;8.302;2024-03-02T11:18:12;99047.13;;;17.39;50.21
58088;BME280;43884;49.152;8.302;2024-03-02T11:20:40;99037.69;;;16.98;48.88
58088;BME280;43884;49.152;8.302;2024-03-02T11:23:07;99051.34;;;15.86;50.29
58088;BME280;43884;49.152;8.302;2024-03-02T11:25:34;99056.78;;;16.67;51.09
58088;BME280;43884;49.152;8.302;2024-03-02T11:28:01;99056.13;;;16.39;52.56
58088;BME280;43884;49.152;8.302;2024-03-02T11:33:01;99029.53;;;17.40;48.11
58088;BME280;43884;49.152;8.302;2024-03-02T11:35:27;99022.97;;;17.36;48.18
58088;BME280;43884;49.152;8.302;2024-03-02T11:37:54;99021.84;;;17.52;48.48
58088;BME280;43884;49.152;8.302;2024-03-02T11:40:24;99027.06;;;18.16;49.96
58088;BME280;43884;49.152;8.302;2024-03-02T11:42:51;99003.97;;;18.12;46.69
58088;BME280;43884;49.152;8.302;2024-03-02T11:45:17;99003.44;;;17.37;46.40
58088;BME280;43884;49.152;8.302;2024-03-02T11:47:51;98991.94;;;16.40;45.83
58088;BME280;43884;49.152;8.302;2024-03-02T11:53:05;98990.75;;;18.14;45.30
58088;BME280;43884;49.152;8.302;2024-03-02T11:55:31;98976.19;;;17.93;44.67
58088;BME280;43884;49.152;8.302;2024-03-02T11:58:01;98982.28;;;17.38;45.35
58088;BME280;43884;49.152;8.302;2024-03-02T12:00:28;98979.69;;;18.35;45.01
58088;BME280;43884;49.152;8.302;2024-03-02T12:03:16;98963.31;;;18.64;43.93
58088;BME280;43884;49.152;8.302;2024-03-02T12:05:41;98975.66;;;17.96;45.30
58088;BME280;43884;49.152;8.302;2024-03-02T12:08:08;98957.88;;;19.39;43.52
58088;BME280;43884;49.152;8.302;2024-03-02T12:10:35;98962.84;;;18.47;44.00
58088;BME280;43884;49.152;8.302;2024-03-02T12:13:02;98958.59;;;18.14;43.42
58088;BME280;43884;49.152;8.302;2024-03-02T12:15:30;98951.44;;;17.93;43.86
58088;BME280;43884;49.152;8.302;2024-03-02T12:17:57;98948.09;;;19.22;42.32
58088;BME280;43884;49.152;8.302;2024-03-02T12:20:25;98952.38;;;18.99;42.09
58088;BME280;43884;49.152;8.302;2024-03-02T12:22:52;98948.75;;;17.61;43.23
58088;BME280;43884;49.152;8.302;2024-03-02T12:25:22;98931.63;;;18.72;41.42
58088;BME280;43884;49.152;8.302;2024-03-02T12:27:50;98939.00;;;19.22;41.37
58088;BME280;43884;49.152;8.302;2024-03-02T12:30:17;98929.66;;;18.73;41.32
58088;BME280;43884;49.152;8.302;2024-03-02T12:32:44;98942.78;;;18.91;43.23
58088;BME280;43884;49.152;8.302;2024-03-02T12:35:10;98936.88;;;19.48;41.77
58088;BME280;43884;49.152;8.302;2024-03-02T12:37:47;98931.16;;;17.73;42.19
58088;BME280;43884;49.152;8.302;2024-03-02T12:40:15;98943.22;;;17.82;43.88
58088;BME280;43884;49.152;8.302;2024-03-02T12:42:41;98934.88;;;19.54;42.78
58088;BME280;43884;49.152;8.302;2024-03-02T12:45:08;98926.78;;;18.48;41.51
58088;BME280;43884;49.152;8.302;2024-03-02T12:47:35;98937.22;;;18.51;42.50
58088;BME280;43884;49.152;8.302;2024-03-02T12:50:02;98925.59;;;17.88;42.92
58088;BME280;43884;49.152;8.302;2024-03-02T12:52:32;98916.84;;;19.67;42.83
58088;BME280;43884;49.152;8.302;2024-03-02T12:55:04;98917.41;;;17.68;42.16
58088;BME280;43884;49.152;8.302;2024-03-02T12:57:54;98927.63;;;17.20;44.41
58088;BME280;43884;49.152;8.302;2024-03-02T13:00:32;98915.44;;;19.05;42.91
58088;BME280;43884;49.152;8.302;2024-03-02T13:09:55;98878.47;;;19.46;40.55
58088;BME280;43884;49.152;8.302;2024-03-02T13:12:34;98889.25;;;19.67;40.94
58088;BME280;43884;49.152;8.302;2024-03-02T13:15:20;98893.44;;;19.35;41.38
58088;BME280;43884;49.152;8.302;2024-03-02T13:18:44;98896.34;;;19.49;41.64
58088;BME280;43884;49.152;8.302;2024-03-02T13:27:57;98888.13;;;19.09;42.19